Ekwok, AK (99580)

4:29 AM AKST on February 12, 2016 (GMT -0900)
New Stuyahok AP, New Stuyahok | | Change Station
CLOSE
Current Station
Airport
Location: New Stuyahok AP, New Stuyahok,
Elevation: 302 ft
Nearby Weather Stations

Elev 302 ft 59.45 °N, 157.33 °W | Updated 33 minutes ago

Overcast
Overcast
35 °F
Feels Like 31 °F
N
5
Wind Variable Wind from East

Today
High -- | Low -- °F
--% Chance of Precip.
Yesterday
High -- | Low -- °F
Precip. -- in
Pressure 29.41 in
Visibility 10.0 miles
Clouds Overcast 3100 ft
Windchill 31 °F
Dew Point 32 °F
Humidity 89%
Rainfall 0.00 in
Snow Depth Not available.
9:14 AM 6:15 PM
Waxing Crescent, 20% visible
METAR PANW 121256Z AUTO 09004KT 10SM OVC031 02/00 A2936 RMK AO2 SLP957 T00170000 FZRANO
Pressure 29.41 in
Visibility 10.0 miles
Clouds Overcast 3100 ft
Windchill 31 °F
Dew Point 32 °F
Humidity 89%
Rainfall 0.00 in
Snow Depth Not available.
9:14 AM 6:15 PM
Waxing Crescent, 20% visible
METAR PANW 121256Z AUTO 09004KT 10SM OVC031 02/00 A2936 RMK AO2 SLP957 T00170000 FZRANO

10-Day Weather Forecast

Almanac

Astronomy

Feb. 12, 2016 Rise Set
Actual Time
Civil Twilight
Nautical Twilight
Astronomical Twilight
Moon
Length of Visible Light
Length of Day
Tomorrow will be .
, % of the Moon is Illuminated

Today's Extremes

State Highs State Lows

Community

WunderPhotos

Upload Photos

1,892,309 photos uploaded!

WunderBlog® & News

Nearby

Air Quality

  Air Quality AQ Index Pollutant
Not available.

Snow Depth

Station Depth Elevation

Earthquake Activity

City Distance Mag. Time & Date
Minimum magnitude displayed is 2.5.

Coastal Water Temperatures

Place Temperature

Stations

Nearby Weather Stations

Station Location Temp. Windchill Dew Point Humidity Wind Precip. Elev Updated Type
                   

Watches & Warnings

There are currently no watches in effect.